Time;durP1;ratioP1;P1;durP2;ratioP2;P2;SDS_P1;SDS_P2;PMS_P1;PMS_P2;Temp;Humidity;BMP_temperature;BMP_pressure;BME280_temperature;BME280_humidity;BME280_pressure;Samples;Min_cycle;Max_cycle;Signal;HPM_P1;HPM_P2
2022/12/11 00:07:35;;;;;;;1.80;1.60;;;;;;;;;;20993862;28;20221;-68
2022/12/11 00:17:37;;;;;;;3.97;2.13;;;;;;;;;;20994408;28;20224;-69
2022/12/11 00:27:39;;;;;;;2.43;1.73;;;;;;;;;;20992959;28;20221;-69
2022/12/11 00:37:41;;;;;;;1.00;0.80;;;;;;;;;;20992600;28;20213;-69
2022/12/11 00:47:43;;;;;;;1.70;1.40;;;;;;;;;;20990601;28;20213;-68
2022/12/11 00:57:44;;;;;;;2.50;1.90;;;;;;;;;;20991366;28;20212;-68
2022/12/11 01:07:46;;;;;;;5.00;1.37;;;;;;;;;;20989892;28;20209;-69
2022/12/11 01:17:48;;;;;;;2.33;1.40;;;;;;;;;;20988037;28;20278;-69
2022/12/11 01:27:51;;;;;;;2.00;1.57;;;;;;;;;;20957034;28;20286;-69
2022/12/11 01:37:52;;;;;;;1.50;1.10;;;;;;;;;;20988180;28;20213;-69
2022/12/11 01:48:03;;;;;;;1.57;1.30;;;;;;;;;;20985804;28;20201;-69
2022/12/11 01:58:05;;;;;;;2.40;1.73;;;-0.50;99.90;;;;;;20986459;28;20235;-69
2022/12/11 02:08:08;;;;;;;1.23;0.97;;;;;;;;;;20990301;28;20209;-69
2022/12/11 02:18:34;;;;;;;1.93;1.40;;;-0.80;99.90;;;;;;20984695;28;20237;-69
2022/12/11 02:28:39;;;;;;;1.63;1.37;;;;;;;;;;20959623;28;20349;-69
2022/12/11 02:38:42;;;;;;;1.80;1.33;;;;;;;;;;20983762;28;20330;-69
2022/12/11 02:48:45;;;;;;;1.67;1.13;;;;;;;;;;20982562;28;20193;-69
2022/12/11 02:58:48;;;;;;;1.40;1.20;;;;;;;;;;20982725;28;20208;-68
2022/12/11 03:08:50;;;;;;;2.30;1.60;;;-0.90;99.90;;;;;;20982879;28;20217;-69
2022/12/11 03:18:54;;;;;;;2.60;1.80;;;;;;;;;;20998201;28;20225;-69
2022/12/11 03:28:59;;;;;;;2.33;1.20;;;;;;;;;;20977868;28;20512;-68
2022/12/11 03:39:06;;;;;;;1.97;1.77;;;-0.80;99.90;;;;;;20988190;28;20271;-68
2022/12/11 03:49:17;;;;;;;2.43;1.80;;;;;;;;;;20989589;28;20213;-69
2022/12/11 03:59:19;;;;;;;1.40;1.30;;;;;;;;;;20930082;22;20230;-65
2022/12/11 04:09:20;;;;;;;1.97;1.87;;;;;;;;;;20716299;28;20289;-65
2022/12/11 04:29:43;;;;;;;2.03;1.33;;;;;;;;;;20731098;28;20277;-65
2022/12/11 04:39:45;;;;;;;1.20;1.00;;;;;;;;;;20696001;28;20227;-65
2022/12/11 04:49:47;;;;;;;2.87;1.57;;;;;;;;;;20711108;28;20231;-65
2022/12/11 04:59:49;;;;;;;2.03;1.53;;;;;;;;;;20694707;28;20293;-65
2022/12/11 05:09:51;;;;;;;0.93;0.80;;;;;;;;;;20693783;28;20215;-65
2022/12/11 05:19:53;;;;;;;1.20;1.10;;;;;;;;;;20708825;28;20289;-65
2022/12/11 05:29:55;;;;;;;1.57;1.13;;;;;;;;;;20692504;28;20624;-65
2022/12/11 05:39:57;;;;;;;2.33;1.23;;;;;;;;;;20717733;28;20698;-65
2022/12/11 05:49:59;;;;;;;1.17;1.07;;;;;;;;;;20711097;28;20272;-65
2022/12/11 06:00:01;;;;;;;2.57;1.40;;;;;;;;;;20708285;28;20690;-65
2022/12/11 06:10:04;;;;;;;0.83;0.80;;;;;;;;;;20707158;28;20639;-65
2022/12/11 06:20:06;;;;;;;1.23;1.00;;;;;;;;;;20690327;28;20282;-65
2022/12/11 06:30:08;;;;;;;1.40;1.27;;;-1.30;99.90;;;;;;20705441;28;20561;-65
2022/12/11 06:40:11;;;;;;;1.10;0.97;;;-1.10;99.90;;;;;;20705145;28;20588;-65
2022/12/11 06:50:13;;;;;;;2.20;1.13;;;;;;;;;;20714784;28;20238;-65
2022/12/11 07:00:16;;;;;;;1.27;0.97;;;;;;;;;;20721339;28;20231;-65
2022/12/11 07:10:18;;;;;;;3.07;2.43;;;;;;;;;;20732795;28;20231;-65
2022/12/11 07:20:20;;;;;;;3.43;1.57;;;;;;;;;;20719768;28;20338;-65
2022/12/11 07:30:22;;;;;;;2.13;1.47;;;;;;;;;;20702947;28;20207;-65
2022/12/11 07:40:24;;;;;;;2.07;1.87;;;;;;;;;;20711725;28;20223;-65
2022/12/11 07:50:26;;;;;;;1.83;1.60;;;;;;;;;;20744282;28;20220;-65
2022/12/11 08:00:28;;;;;;;3.10;2.67;;;;;;;;;;20711154;28;20285;-65
2022/12/11 08:10:30;;;;;;;1.80;1.33;;;;;;;;;;20729624;28;20227;-65
2022/12/11 08:20:32;;;;;;;2.30;1.60;;;;;;;;;;20699940;28;20277;-65
2022/12/11 08:30:34;;;;;;;3.20;2.40;;;;;;;;;;20699256;28;20215;-65
2022/12/11 08:40:36;;;;;;;2.27;1.70;;;;;;;;;;20713636;28;20289;-65
2022/12/11 08:50:38;;;;;;;3.70;2.30;;;;;;;;;;20728178;28;20296;-65
2022/12/11 09:00:40;;;;;;;3.10;2.03;;;;;;;;;;20696176;28;20223;-65
2022/12/11 09:10:42;;;;;;;2.40;2.07;;;;;;;;;;20678818;28;20679;-65
2022/12/11 09:20:44;;;;;;;2.87;2.10;;;;;;;;;;20711735;28;20258;-65
2022/12/11 09:30:46;;;;;;;2.63;2.00;;;;;;;;;;20727648;28;20584;-64
2022/12/11 09:40:48;;;;;;;5.47;3.63;;;;;;;;;;20722929;28;20231;-64
2022/12/11 09:50:53;;;;;;;5.03;2.80;;;-0.30;99.90;;;;;;20705084;28;20264;-66
2022/12/11 10:01:02;;;;;;;3.43;2.33;;;;;;;;;;20760240;22;20238;-68
2022/12/11 10:11:28;;;;;;;2.63;2.00;;;;;;;;;;20889207;28;20617;-67
2022/12/11 10:21:36;;;;;;;3.47;2.30;;;;;;;;;;20887316;28;20226;-67
2022/12/11 10:31:54;;;;;;;4.30;3.20;;;-0.10;99.90;;;;;;20886975;28;20221;-68
2022/12/11 10:41:57;;;;;;;2.83;1.93;;;;;;;;;;20886355;28;20237;-68
2022/12/11 10:52:00;;;;;;;2.87;2.43;;;0.00;99.90;;;;;;20901771;28;20225;-68
2022/12/11 11:02:04;;;;;;;3.87;2.90;;;;;;;;;;20900728;28;20689;-68
2022/12/11 11:12:25;;;;;;;4.70;3.20;;;-0.10;99.90;;;;;;20901417;28;20222;-68
2022/12/11 11:22:28;;;;;;;2.57;2.37;;;;;;;;;;20884817;28;20277;-68
2022/12/11 11:32:38;;;;;;;3.13;2.23;;;;;;;;;;20887825;28;20244;-68
2022/12/11 11:43:07;;;;;;;2.43;1.93;;;;;;;;;;20894052;28;20230;-68
2022/12/11 11:53:15;;;;;;;3.60;2.43;;;;;;;;;;20891307;28;20276;-69
2022/12/11 12:03:19;;;;;;;3.27;2.20;;;;;;;;;;20883515;28;20222;-69
2022/12/11 12:13:21;;;;;;;2.90;2.47;;;;;;;;;;20869650;28;20347;-69
2022/12/11 12:23:28;;;;;;;2.77;2.17;;;;;;;;;;20899560;28;20226;-70
2022/12/11 12:33:39;;;;;;;3.50;2.53;;;;;;;;;;20896340;28;20217;-70
2022/12/11 12:43:58;;;;;;;3.43;2.93;;;2.50;99.90;;;;;;20955549;28;20229;-69
2022/12/11 12:54:02;;;;;;;4.77;2.73;;;;;;;;;;20892240;28;20653;-69
2022/12/11 13:04:06;;;;;;;4.47;3.80;;;;;;;;;;20891499;28;20757;-69
2022/12/11 13:14:14;;;;;;;4.80;3.20;;;;;;;;;;20893130;28;20863;-70
2022/12/11 13:24:19;;;;;;;4.67;3.00;;;0.60;99.90;;;;;;20852249;28;20222;-69
2022/12/11 13:34:22;;;;;;;4.77;2.40;;;;;;;;;;20884787;28;20273;-70
2022/12/11 13:44:26;;;;;;;3.93;2.33;;;;;;;;;;20889775;28;20256;-70
2022/12/11 13:54:29;;;;;;;4.53;2.60;;;0.60;99.90;;;;;;20878549;28;20256;-69
2022/12/11 14:04:33;;;;;;;7.80;5.03;;;0.60;99.90;;;;;;20900522;28;20217;-69
2022/12/11 14:14:40;;;;;;;2.50;2.30;;;;;;;;;;20881355;28;20271;-69
2022/12/11 14:24:56;;;;;;;6.53;2.73;;;0.50;99.90;;;;;;20883192;28;20225;-69
2022/12/11 14:34:58;;;;;;;3.20;2.53;;;;;;;;;;20875283;28;20669;-69
2022/12/11 14:45:00;;;;;;;5.53;2.83;;;;;;;;;;20847062;28;20221;-68
2022/12/11 14:55:08;;;;;;;3.90;3.10;;;;;;;;;;20866213;28;20206;-68
2022/12/11 15:05:10;;;;;;;4.83;3.33;;;;;;;;;;20935902;28;20221;-69
2022/12/11 15:15:14;;;;;;;4.37;2.20;;;;;;;;;;20926943;28;20272;-69
2022/12/11 15:25:24;;;;;;;3.03;2.20;;;;;;;;;;20883653;28;20268;-69
2022/12/11 15:35:27;;;;;;;2.80;1.83;;;;;;;;;;20850584;28;20763;-68
2022/12/11 15:45:29;;;;;;;4.17;2.57;;;;;;;;;;20883007;28;20289;-70
2022/12/11 15:55:33;;;;;;;3.77;2.50;;;;;;;;;;20905681;28;20259;-71
2022/12/11 16:05:35;;;;;;;3.53;2.97;;;;;;;;;;20873898;28;20392;-70
2022/12/11 16:15:43;;;;;;;2.90;2.30;;;0.30;99.90;;;;;;20867024;28;20217;-70
2022/12/11 16:25:45;;;;;;;3.13;2.27;;;0.30;99.90;;;;;;20878948;28;20221;-70
2022/12/11 16:35:47;;;;;;;2.87;1.90;;;;;;;;;;20873366;28;20264;-70
2022/12/11 16:45:53;;;;;;;3.23;1.97;;;;;;;;;;20862397;28;20299;-70
2022/12/11 16:55:55;;;;;;;3.13;2.40;;;;;;;;;;20878401;28;20235;-69
2022/12/11 17:05:58;;;;;;;3.77;2.93;;;;;;;;;;20934890;23;20233;-67
2022/12/11 17:15:59;;;;;;;3.97;2.77;;;;;;;;;;20885509;28;20201;-67
2022/12/11 17:26:01;;;;;;;2.90;1.97;;;;;;;;;;20906709;28;20234;-67
2022/12/11 17:36:04;;;;;;;4.60;3.27;;;0.30;99.90;;;;;;20905054;28;20271;-68
2022/12/11 17:46:06;;;;;;;3.37;2.73;;;;;;;;;;20902997;28;20226;-67
2022/12/11 17:56:08;;;;;;;3.67;2.73;;;;;;;;;;20903204;28;20214;-67
2022/12/11 18:06:11;;;;;;;3.80;2.07;;;;;;;;;;20897779;28;20209;-67
2022/12/11 18:16:18;;;;;;;3.13;2.00;;;;;;;;;;20902021;28;20209;-69
2022/12/11 18:26:20;;;;;;;3.57;2.60;;;;;;;;;;20879589;28;20217;-70
2022/12/11 18:36:21;;;;;;;3.83;2.73;;;;;;;;;;20899790;28;20213;-70
2022/12/11 18:46:23;;;;;;;5.60;2.90;;;;;;;;;;20899820;28;20275;-70
2022/12/11 18:56:25;;;;;;;5.27;3.10;;;;;;;;;;20901133;28;20210;-70
2022/12/11 19:06:29;;;;;;;4.30;2.97;;;0.30;99.90;;;;;;20880402;28;20252;-70
2022/12/11 19:16:36;;;;;;;5.07;3.87;;;;;;;;;;20881501;28;20362;-70
2022/12/11 19:26:37;;;;;;;4.27;3.57;;;0.40;99.90;;;;;;20876949;28;20214;-70
2022/12/11 19:36:39;;;;;;;4.60;3.17;;;;;;;;;;20880613;28;20186;-70
2022/12/11 19:46:42;;;;;;;13.13;3.20;;;;;;;;;;20877832;28;20229;-69
2022/12/11 19:56:44;;;;;;;6.07;2.93;;;0.60;99.90;;;;;;20901149;28;20198;-68
2022/12/11 20:06:46;;;;;;;2.90;2.00;;;0.40;99.90;;;;;;20909788;28;20218;-68
2022/12/11 20:16:49;;;;;;;3.40;2.43;;;;;;;;;;20909549;28;20198;-68
2022/12/11 20:26:53;;;;;;;3.73;2.97;;;0.40;99.90;;;;;;20907847;28;20307;-68
2022/12/11 20:36:55;;;;;;;3.83;2.83;;;;;;;;;;20907178;28;20217;-68
2022/12/11 20:46:57;;;;;;;3.23;2.93;;;;;;;;;;20908380;28;20488;-68
2022/12/11 20:56:59;;;;;;;3.77;2.80;;;;;;;;;;20907723;28;20213;-66
2022/12/11 21:07:01;;;;;;;3.53;2.33;;;;;;;;;;20905671;28;20229;-67
2022/12/11 21:17:03;;;;;;;4.90;3.03;;;;;;;;;;20906461;28;20202;-68
2022/12/11 21:27:04;;;;;;;3.70;2.97;;;;;;;;;;20904670;28;20867;-70
2022/12/11 21:37:06;;;;;;;4.10;2.97;;;;;;;;;;20904862;28;20206;-69
2022/12/11 21:47:08;;;;;;;4.73;2.73;;;;;;;;;;20903971;28;20214;-69
2022/12/11 21:57:10;;;;;;;4.03;2.67;;;;;;;;;;20902986;28;20214;-69
2022/12/11 22:07:13;;;;;;;4.70;2.73;;;;;;;;;;20902761;28;20214;-69
2022/12/11 22:17:17;;;;;;;3.87;2.30;;;;;;;;;;20901776;28;20210;-69
2022/12/11 22:27:21;;;;;;;4.40;2.87;;;;;;;;;;20883357;28;20248;-69
2022/12/11 22:37:23;;;;;;;2.77;2.27;;;;;;;;;;20901360;28;20206;-70
2022/12/11 22:47:25;;;;;;;3.07;2.73;;;;;;;;;;20899416;28;20233;-69
2022/12/11 22:57:26;;;;;;;4.23;2.17;;;;;;;;;;20900440;28;20272;-69
2022/12/11 23:07:29;;;;;;;3.97;2.80;;;;;;;;;;21131167;22;20584;-69
2022/12/11 23:17:31;;;;;;;3.40;2.93;;;;;;;;;;21095394;28;20211;-69
2022/12/11 23:27:32;;;;;;;3.77;2.73;;;;;;;;;;21120973;28;20686;-68
2022/12/11 23:37:35;;;;;;;2.67;2.37;;;;;;;;;;21106808;28;20691;-68
2022/12/11 23:47:36;;;;;;;4.27;2.47;;;;;;;;;;21099088;28;20216;-68
2022/12/11 23:57:38;;;;;;;4.47;2.87;;;;;;;;;;21133079;28;20257;-68
